GIA009 WIDD-WIII
Flight info
| Callsign | GIA009 |
|---|---|
| Flight time | N/A |
| Altitude | 37000 |
| Route | RDV/22 ANITO B470 BUNIK |
| Aircraft | B738/M-SDE2E3FGHIRWXY/LB1 |
Departure
| Time | 2026-05-05 15:39 |
|---|---|
| Airport | Hang Nadim International Airport (WIDD) |
Arrival
| Time | N/A |
|---|---|
| Airport | Soekarno-Hatta International Airport (WIII) |
| Time | Latitude | Longitude | Altitude | Speed | Heading |
|---|---|---|---|---|---|
| 2026-05-05 15:33 | 1.12284 | 104.11727 | 136 ft | 0 kts | 41° |
| 2026-05-05 15:35 | 1.12304 | 104.11745 | 136 ft | 11 kts | 41° |
| 2026-05-05 15:35 | 1.12336 | 104.11818 | 137 ft | 11 kts | 109° |
| 2026-05-05 15:35 | 1.12370 | 104.11898 | 137 ft | 18 kts | 38° |
| 2026-05-05 15:35 | 1.12446 | 104.11967 | 136 ft | 25 kts | 43° |
| 2026-05-05 15:36 | 1.12595 | 104.12098 | 136 ft | 32 kts | 41° |
| 2026-05-05 15:36 | 1.12779 | 104.12258 | 136 ft | 38 kts | 43° |
| 2026-05-05 15:36 | 1.12985 | 104.12442 | 136 ft | 40 kts | 41° |
| 2026-05-05 15:36 | 1.13160 | 104.12598 | 136 ft | 20 kts | 41° |
| 2026-05-05 15:37 | 1.13225 | 104.12656 | 136 ft | 7 kts | 46° |
| 2026-05-05 15:37 | 1.13248 | 104.12710 | 136 ft | 7 kts | 94° |
| 2026-05-05 15:37 | 1.13238 | 104.12733 | 137 ft | 2 kts | 122° |
| 2026-05-05 15:37 | 1.13233 | 104.12740 | 137 ft | 2 kts | 125° |
| 2026-05-05 15:38 | 1.13229 | 104.12745 | 137 ft | 2 kts | 126° |
| 2026-05-05 15:38 | 1.13205 | 104.12776 | 137 ft | 10 kts | 129° |
| 2026-05-05 15:38 | 1.13136 | 104.12788 | 137 ft | 11 kts | 203° |
| 2026-05-05 15:38 | 1.13001 | 104.12675 | 137 ft | 63 kts | 222° |
| 2026-05-05 15:39 | 1.12433 | 104.12177 | 138 ft | 150 kts | 221° |
| 2026-05-05 15:39 | 1.11529 | 104.11369 | 647 ft | 182 kts | 222° |
| 2026-05-05 15:39 | 1.10704 | 104.10594 | 2066 ft | 149 kts | 222° |
| 2026-05-05 15:39 | 1.09921 | 104.09848 | 2730 ft | 169 kts | 222° |
| 2026-05-05 15:40 | 1.08950 | 104.08981 | 3066 ft | 205 kts | 218° |
| 2026-05-05 15:40 | 1.07756 | 104.08029 | 3314 ft | 233 kts | 219° |
| 2026-05-05 15:40 | 1.06441 | 104.06927 | 3535 ft | 260 kts | 220° |
| 2026-05-05 15:40 | 1.04977 | 104.05801 | 3963 ft | 270 kts | 210° |
| 2026-05-05 15:41 | 1.03196 | 104.05228 | 3980 ft | 273 kts | 182° |
| 2026-05-05 15:41 | 1.01341 | 104.05609 | 4493 ft | 277 kts | 152° |
| 2026-05-05 15:41 | 0.99894 | 104.06841 | 5559 ft | 275 kts | 127° |
| 2026-05-05 15:41 | 0.98846 | 104.08446 | 6513 ft | 278 kts | 121° |
| 2026-05-05 15:42 | 0.97857 | 104.10121 | 7351 ft | 282 kts | 120° |
| 2026-05-05 15:42 | 0.96854 | 104.11851 | 7990 ft | 297 kts | 120° |
| 2026-05-05 15:42 | 0.95776 | 104.13717 | 8341 ft | 319 kts | 120° |
| 2026-05-05 15:42 | 0.94656 | 104.15664 | 8897 ft | 325 kts | 120° |
| 2026-05-05 15:43 | 0.93527 | 104.17629 | 8978 ft | 327 kts | 120° |
| 2026-05-05 15:43 | 0.92382 | 104.19623 | 9321 ft | 333 kts | 120° |
| 2026-05-05 15:43 | 0.91231 | 104.21630 | 10235 ft | 331 kts | 120° |
| 2026-05-05 15:43 | 0.90098 | 104.23602 | 11083 ft | 332 kts | 120° |
| 2026-05-05 15:44 | 0.88935 | 104.25615 | 11845 ft | 336 kts | 120° |
| 2026-05-05 15:44 | 0.87755 | 104.27648 | 12612 ft | 340 kts | 120° |
| 2026-05-05 15:44 | 0.86553 | 104.29705 | 13365 ft | 344 kts | 120° |
| 2026-05-05 15:44 | 0.85340 | 104.31767 | 13771 ft | 344 kts | 120° |
| 2026-05-05 15:45 | 0.84148 | 104.33864 | 13892 ft | 349 kts | 114° |
| 2026-05-05 15:45 | 0.83556 | 104.36196 | 13909 ft | 347 kts | 95° |
| 2026-05-05 15:45 | 0.83433 | 104.38601 | 13904 ft | 347 kts | 91° |
| 2026-05-05 15:45 | 0.83397 | 104.41017 | 13918 ft | 348 kts | 90° |
| 2026-05-05 15:46 | 0.83377 | 104.43426 | 14286 ft | 346 kts | 90° |
| 2026-05-05 15:46 | 0.83363 | 104.45840 | 14818 ft | 348 kts | 90° |
| 2026-05-05 15:46 | 0.83350 | 104.48271 | 15434 ft | 352 kts | 90° |
| 2026-05-05 15:46 | 0.83338 | 104.50724 | 16140 ft | 353 kts | 90° |
| 2026-05-05 15:47 | 0.83325 | 104.53174 | 16866 ft | 353 kts | 90° |
| 2026-05-05 15:47 | 0.83316 | 104.54804 | 17355 ft | 354 kts | 90° |
| 2026-05-05 15:47 | 0.82958 | 104.58109 | 17856 ft | 367 kts | 110° |
| 2026-05-05 15:47 | 0.81605 | 104.60273 | 17893 ft | 373 kts | 134° |
| 2026-05-05 15:48 | 0.80237 | 104.61308 | 17911 ft | 373 kts | 151° |
| 2026-05-05 15:48 | 0.74358 | 104.62804 | 17904 ft | 375 kts | 166° |